sensor_id;sensor_type;location;lat;lon;timestamp;P1;durP1;ratioP1;P2;durP2;ratioP2
22186;SDS011;11259;52.146;12.844;2024-03-02T00:02:01;6.97;;;4.53;;
22186;SDS011;11259;52.146;12.844;2024-03-02T00:04:26;4.22;;;3.72;;
22186;SDS011;11259;52.146;12.844;2024-03-02T00:06:52;6.85;;;5.35;;
22186;SDS011;11259;52.146;12.844;2024-03-02T00:09:19;8.57;;;4.50;;
22186;SDS011;11259;52.146;12.844;2024-03-02T00:11:44;11.65;;;5.00;;
22186;SDS011;11259;52.146;12.844;2024-03-02T00:14:09;15.75;;;6.03;;
22186;SDS011;11259;52.146;12.844;2024-03-02T00:16:35;6.00;;;4.82;;
22186;SDS011;11259;52.146;12.844;2024-03-02T00:19:01;7.57;;;3.85;;
22186;SDS011;11259;52.146;12.844;2024-03-02T00:21:26;11.05;;;5.70;;
22186;SDS011;11259;52.146;12.844;2024-03-02T00:23:53;5.32;;;4.82;;
22186;SDS011;11259;52.146;12.844;2024-03-02T00:26:19;6.47;;;4.70;;
22186;SDS011;11259;52.146;12.844;2024-03-02T00:28:45;8.38;;;5.32;;
22186;SDS011;11259;52.146;12.844;2024-03-02T00:31:11;7.32;;;5.38;;
22186;SDS011;11259;52.146;12.844;2024-03-02T00:33:37;8.52;;;4.85;;
22186;SDS011;11259;52.146;12.844;2024-03-02T00:36:05;6.97;;;4.85;;
22186;SDS011;11259;52.146;12.844;2024-03-02T00:38:31;7.10;;;5.75;;
22186;SDS011;11259;52.146;12.844;2024-03-02T00:40:59;5.30;;;4.57;;
22186;SDS011;11259;52.146;12.844;2024-03-02T00:43:41;5.47;;;4.93;;
22186;SDS011;11259;52.146;12.844;2024-03-02T00:46:07;7.70;;;4.18;;
22186;SDS011;11259;52.146;12.844;2024-03-02T00:48:33;4.60;;;2.67;;
22186;SDS011;11259;52.146;12.844;2024-03-02T00:50:58;18.20;;;4.93;;
22186;SDS011;11259;52.146;12.844;2024-03-02T00:53:24;8.43;;;5.18;;
22186;SDS011;11259;52.146;12.844;2024-03-02T00:55:51;7.88;;;5.15;;
22186;SDS011;11259;52.146;12.844;2024-03-02T00:58:17;6.30;;;3.45;;
22186;SDS011;11259;52.146;12.844;2024-03-02T01:00:44;8.35;;;4.97;;
22186;SDS011;11259;52.146;12.844;2024-03-02T01:03:09;8.57;;;4.25;;
22186;SDS011;11259;52.146;12.844;2024-03-02T01:05:34;4.82;;;3.97;;
22186;SDS011;11259;52.146;12.844;2024-03-02T01:08:00;9.77;;;5.50;;
22186;SDS011;11259;52.146;12.844;2024-03-02T01:10:25;3.95;;;3.28;;
22186;SDS011;11259;52.146;12.844;2024-03-02T01:12:50;6.28;;;5.15;;
22186;SDS011;11259;52.146;12.844;2024-03-02T01:15:16;6.25;;;3.67;;
22186;SDS011;11259;52.146;12.844;2024-03-02T01:17:42;4.13;;;3.72;;
22186;SDS011;11259;52.146;12.844;2024-03-02T01:20:08;6.72;;;5.10;;
22186;SDS011;11259;52.146;12.844;2024-03-02T01:22:35;8.70;;;4.50;;
22186;SDS011;11259;52.146;12.844;2024-03-02T01:25:00;6.60;;;5.60;;
22186;SDS011;11259;52.146;12.844;2024-03-02T01:27:26;5.85;;;3.20;;
22186;SDS011;11259;52.146;12.844;2024-03-02T01:29:51;8.10;;;5.38;;
22186;SDS011;11259;52.146;12.844;2024-03-02T01:32:16;8.32;;;4.32;;
22186;SDS011;11259;52.146;12.844;2024-03-02T01:34:43;6.65;;;4.53;;
22186;SDS011;11259;52.146;12.844;2024-03-02T01:37:08;6.22;;;4.53;;
22186;SDS011;11259;52.146;12.844;2024-03-02T01:39:34;8.85;;;4.57;;
22186;SDS011;11259;52.146;12.844;2024-03-02T01:41:59;6.88;;;3.72;;
22186;SDS011;11259;52.146;12.844;2024-03-02T01:44:24;5.78;;;3.63;;
22186;SDS011;11259;52.146;12.844;2024-03-02T01:46:50;7.10;;;3.72;;
22186;SDS011;11259;52.146;12.844;2024-03-02T01:49:15;6.75;;;4.22;;
22186;SDS011;11259;52.146;12.844;2024-03-02T01:51:42;9.93;;;4.68;;
22186;SDS011;11259;52.146;12.844;2024-03-02T01:54:07;7.45;;;4.38;;
22186;SDS011;11259;52.146;12.844;2024-03-02T01:56:32;6.35;;;3.85;;
22186;SDS011;11259;52.146;12.844;2024-03-02T01:58:58;6.68;;;4.13;;
22186;SDS011;11259;52.146;12.844;2024-03-02T02:01:23;5.88;;;4.45;;
22186;SDS011;11259;52.146;12.844;2024-03-02T02:03:49;10.13;;;4.38;;
22186;SDS011;11259;52.146;12.844;2024-03-02T02:06:14;9.48;;;4.53;;
22186;SDS011;11259;52.146;12.844;2024-03-02T02:08:41;7.97;;;4.75;;
22186;SDS011;11259;52.146;12.844;2024-03-02T02:11:06;5.45;;;4.60;;
22186;SDS011;11259;52.146;12.844;2024-03-02T02:13:31;8.07;;;4.40;;
22186;SDS011;11259;52.146;12.844;2024-03-02T02:16:03;5.70;;;4.13;;
22186;SDS011;11259;52.146;12.844;2024-03-02T02:18:29;9.75;;;4.45;;
22186;SDS011;11259;52.146;12.844;2024-03-02T02:20:54;10.20;;;4.47;;
22186;SDS011;11259;52.146;12.844;2024-03-02T02:23:21;7.65;;;4.55;;
22186;SDS011;11259;52.146;12.844;2024-03-02T02:25:46;4.70;;;3.97;;
22186;SDS011;11259;52.146;12.844;2024-03-02T02:28:12;7.85;;;4.10;;
22186;SDS011;11259;52.146;12.844;2024-03-02T02:30:37;4.35;;;3.63;;
22186;SDS011;11259;52.146;12.844;2024-03-02T02:33:03;6.45;;;4.38;;
22186;SDS011;11259;52.146;12.844;2024-03-02T02:35:28;5.05;;;4.05;;
22186;SDS011;11259;52.146;12.844;2024-03-02T02:37:54;7.55;;;4.75;;
22186;SDS011;11259;52.146;12.844;2024-03-02T02:40:21;5.13;;;3.33;;
22186;SDS011;11259;52.146;12.844;2024-03-02T02:42:47;7.50;;;4.15;;
22186;SDS011;11259;52.146;12.844;2024-03-02T02:45:12;5.57;;;3.85;;
22186;SDS011;11259;52.146;12.844;2024-03-02T02:47:38;7.25;;;4.22;;
22186;SDS011;11259;52.146;12.844;2024-03-02T02:50:03;6.43;;;4.40;;
22186;SDS011;11259;52.146;12.844;2024-03-02T02:52:32;4.43;;;4.03;;
22186;SDS011;11259;52.146;12.844;2024-03-02T02:54:58;6.10;;;4.78;;
22186;SDS011;11259;52.146;12.844;2024-03-02T02:57:25;11.48;;;5.50;;
22186;SDS011;11259;52.146;12.844;2024-03-02T02:59:50;8.52;;;4.20;;
22186;SDS011;11259;52.146;12.844;2024-03-02T03:02:15;5.65;;;4.05;;
22186;SDS011;11259;52.146;12.844;2024-03-02T03:04:41;4.95;;;4.15;;
22186;SDS011;11259;52.146;12.844;2024-03-02T03:07:06;8.85;;;5.65;;
22186;SDS011;11259;52.146;12.844;2024-03-02T03:09:31;11.57;;;5.60;;
22186;SDS011;11259;52.146;12.844;2024-03-02T03:11:57;7.07;;;4.68;;
22186;SDS011;11259;52.146;12.844;2024-03-02T03:14:23;18.55;;;5.30;;
22186;SDS011;11259;52.146;12.844;2024-03-02T03:16:49;5.95;;;3.70;;
22186;SDS011;11259;52.146;12.844;2024-03-02T03:19:14;7.70;;;5.53;;
22186;SDS011;11259;52.146;12.844;2024-03-02T03:21:39;7.97;;;4.05;;
22186;SDS011;11259;52.146;12.844;2024-03-02T03:24:05;6.85;;;4.43;;
22186;SDS011;11259;52.146;12.844;2024-03-02T03:26:30;6.20;;;4.35;;
22186;SDS011;11259;52.146;12.844;2024-03-02T03:28:56;10.05;;;5.38;;
22186;SDS011;11259;52.146;12.844;2024-03-02T03:31:22;9.38;;;5.10;;
22186;SDS011;11259;52.146;12.844;2024-03-02T03:33:48;6.30;;;5.05;;
22186;SDS011;11259;52.146;12.844;2024-03-02T03:36:13;8.98;;;4.65;;
22186;SDS011;11259;52.146;12.844;2024-03-02T03:38:38;7.35;;;4.30;;
22186;SDS011;11259;52.146;12.844;2024-03-02T03:41:03;6.60;;;4.93;;
22186;SDS011;11259;52.146;12.844;2024-03-02T03:43:29;10.05;;;5.88;;
22186;SDS011;11259;52.146;12.844;2024-03-02T03:45:54;5.50;;;4.07;;
22186;SDS011;11259;52.146;12.844;2024-03-02T03:48:21;5.97;;;4.30;;
22186;SDS011;11259;52.146;12.844;2024-03-02T03:50:46;5.43;;;4.35;;
22186;SDS011;11259;52.146;12.844;2024-03-02T03:53:11;5.80;;;4.30;;
22186;SDS011;11259;52.146;12.844;2024-03-02T03:55:37;12.48;;;4.53;;
22186;SDS011;11259;52.146;12.844;2024-03-02T03:58:02;7.45;;;4.53;;
22186;SDS011;11259;52.146;12.844;2024-03-02T04:00:28;8.43;;;4.97;;
22186;SDS011;11259;52.146;12.844;2024-03-02T04:02:53;8.68;;;4.28;;
22186;SDS011;11259;52.146;12.844;2024-03-02T04:05:20;7.18;;;4.43;;
22186;SDS011;11259;52.146;12.844;2024-03-02T04:07:45;4.85;;;4.05;;
22186;SDS011;11259;52.146;12.844;2024-03-02T04:10:10;7.35;;;4.60;;
22186;SDS011;11259;52.146;12.844;2024-03-02T04:12:36;6.85;;;5.28;;
22186;SDS011;11259;52.146;12.844;2024-03-02T04:15:01;8.05;;;4.68;;
22186;SDS011;11259;52.146;12.844;2024-03-02T04:17:27;8.68;;;4.93;;
22186;SDS011;11259;52.146;12.844;2024-03-02T04:19:52;5.43;;;3.80;;
22186;SDS011;11259;52.146;12.844;2024-03-02T04:22:19;9.23;;;4.03;;
22186;SDS011;11259;52.146;12.844;2024-03-02T04:24:44;4.97;;;3.25;;
22186;SDS011;11259;52.146;12.844;2024-03-02T04:27:10;8.40;;;3.65;;
22186;SDS011;11259;52.146;12.844;2024-03-02T04:29:35;9.30;;;5.13;;
22186;SDS011;11259;52.146;12.844;2024-03-02T04:32:00;8.75;;;4.28;;
22186;SDS011;11259;52.146;12.844;2024-03-02T04:34:26;6.00;;;4.13;;
22186;SDS011;11259;52.146;12.844;2024-03-02T04:36:51;8.35;;;4.32;;
22186;SDS011;11259;52.146;12.844;2024-03-02T04:39:18;4.57;;;3.70;;
22186;SDS011;11259;52.146;12.844;2024-03-02T04:41:43;7.30;;;4.10;;
22186;SDS011;11259;52.146;12.844;2024-03-02T04:44:08;4.15;;;3.70;;
22186;SDS011;11259;52.146;12.844;2024-03-02T04:46:33;4.28;;;3.88;;
22186;SDS011;11259;52.146;12.844;2024-03-02T04:48:59;6.25;;;3.78;;
22186;SDS011;11259;52.146;12.844;2024-03-02T04:51:24;5.50;;;4.03;;
22186;SDS011;11259;52.146;12.844;2024-03-02T04:53:49;5.65;;;3.60;;
22186;SDS011;11259;52.146;12.844;2024-03-02T04:56:16;11.25;;;4.55;;
22186;SDS011;11259;52.146;12.844;2024-03-02T04:58:41;5.45;;;4.43;;
22186;SDS011;11259;52.146;12.844;2024-03-02T05:01:07;7.18;;;4.80;;
22186;SDS011;11259;52.146;12.844;2024-03-02T05:03:32;6.05;;;4.50;;
22186;SDS011;11259;52.146;12.844;2024-03-02T05:05:57;6.70;;;4.65;;
22186;SDS011;11259;52.146;12.844;2024-03-02T05:08:23;7.55;;;3.75;;
22186;SDS011;11259;52.146;12.844;2024-03-02T05:10:48;3.85;;;2.78;;
22186;SDS011;11259;52.146;12.844;2024-03-02T05:13:15;6.30;;;2.88;;
22186;SDS011;11259;52.146;12.844;2024-03-02T05:15:40;4.03;;;3.28;;
22186;SDS011;11259;52.146;12.844;2024-03-02T05:18:05;4.20;;;3.67;;
22186;SDS011;11259;52.146;12.844;2024-03-02T05:20:31;7.50;;;4.00;;
22186;SDS011;11259;52.146;12.844;2024-03-02T05:22:56;5.10;;;3.90;;
22186;SDS011;11259;52.146;12.844;2024-03-02T05:25:21;9.15;;;4.20;;
22186;SDS011;11259;52.146;12.844;2024-03-02T05:27:47;4.22;;;3.35;;
22186;SDS011;11259;52.146;12.844;2024-03-02T05:30:14;6.03;;;4.13;;
22186;SDS011;11259;52.146;12.844;2024-03-02T05:32:39;7.65;;;5.03;;
22186;SDS011;11259;52.146;12.844;2024-03-02T05:35:05;5.68;;;4.93;;
22186;SDS011;11259;52.146;12.844;2024-03-02T05:37:31;5.75;;;4.93;;
22186;SDS011;11259;52.146;12.844;2024-03-02T05:39:56;6.15;;;4.82;;
22186;SDS011;11259;52.146;12.844;2024-03-02T05:42:21;7.70;;;5.47;;
22186;SDS011;11259;52.146;12.844;2024-03-02T05:44:47;7.07;;;3.70;;
22186;SDS011;11259;52.146;12.844;2024-03-02T05:47:13;9.85;;;5.35;;
22186;SDS011;11259;52.146;12.844;2024-03-02T05:49:39;5.72;;;4.63;;
22186;SDS011;11259;52.146;12.844;2024-03-02T05:52:04;10.55;;;6.90;;
22186;SDS011;11259;52.146;12.844;2024-03-02T05:54:30;8.85;;;6.20;;
22186;SDS011;11259;52.146;12.844;2024-03-02T05:56:55;6.82;;;4.22;;
22186;SDS011;11259;52.146;12.844;2024-03-02T05:59:20;5.80;;;3.50;;
22186;SDS011;11259;52.146;12.844;2024-03-02T06:01:46;12.13;;;6.22;;
22186;SDS011;11259;52.146;12.844;2024-03-02T06:04:13;8.57;;;5.18;;
22186;SDS011;11259;52.146;12.844;2024-03-02T06:06:38;19.63;;;4.85;;
22186;SDS011;11259;52.146;12.844;2024-03-02T06:09:04;7.90;;;5.78;;
22186;SDS011;11259;52.146;12.844;2024-03-02T06:11:30;6.93;;;5.68;;
22186;SDS011;11259;52.146;12.844;2024-03-02T06:13:55;6.95;;;4.90;;
22186;SDS011;11259;52.146;12.844;2024-03-02T06:16:21;6.85;;;3.85;;
22186;SDS011;11259;52.146;12.844;2024-03-02T06:18:46;6.70;;;4.55;;
22186;SDS011;11259;52.146;12.844;2024-03-02T06:21:13;6.28;;;4.10;;
22186;SDS011;11259;52.146;12.844;2024-03-02T06:23:38;9.13;;;5.90;;
22186;SDS011;11259;52.146;12.844;2024-03-02T06:26:03;10.32;;;7.22;;
22186;SDS011;11259;52.146;12.844;2024-03-02T06:28:29;12.30;;;7.35;;
22186;SDS011;11259;52.146;12.844;2024-03-02T06:30:54;6.13;;;5.53;;
22186;SDS011;11259;52.146;12.844;2024-03-02T06:33:19;8.25;;;5.55;;
22186;SDS011;11259;52.146;12.844;2024-03-02T06:35:45;6.32;;;5.63;;
22186;SDS011;11259;52.146;12.844;2024-03-02T06:38:11;11.65;;;7.00;;
22186;SDS011;11259;52.146;12.844;2024-03-02T06:40:37;13.10;;;4.90;;
22186;SDS011;11259;52.146;12.844;2024-03-02T06:43:02;10.13;;;5.60;;
22186;SDS011;11259;52.146;12.844;2024-03-02T06:45:28;5.40;;;4.80;;
22186;SDS011;11259;52.146;12.844;2024-03-02T06:47:53;8.60;;;6.05;;
22186;SDS011;11259;52.146;12.844;2024-03-02T06:50:18;7.75;;;5.05;;
22186;SDS011;11259;52.146;12.844;2024-03-02T06:52:44;10.00;;;5.82;;
22186;SDS011;11259;52.146;12.844;2024-03-02T06:55:11;6.35;;;5.72;;
22186;SDS011;11259;52.146;12.844;2024-03-02T06:57:36;8.70;;;4.95;;
22186;SDS011;11259;52.146;12.844;2024-03-02T07:00:01;14.77;;;8.02;;
22186;SDS011;11259;52.146;12.844;2024-03-02T07:02:27;8.77;;;6.78;;
22186;SDS011;11259;52.146;12.844;2024-03-02T07:04:52;16.30;;;10.25;;
22186;SDS011;11259;52.146;12.844;2024-03-02T07:07:17;8.65;;;6.55;;
22186;SDS011;11259;52.146;12.844;2024-03-02T07:09:43;10.80;;;7.70;;
22186;SDS011;11259;52.146;12.844;2024-03-02T07:12:09;13.60;;;7.43;;
22186;SDS011;11259;52.146;12.844;2024-03-02T07:14:35;10.88;;;7.72;;
22186;SDS011;11259;52.146;12.844;2024-03-02T07:17:00;8.75;;;6.30;;
22186;SDS011;11259;52.146;12.844;2024-03-02T07:19:25;11.65;;;7.32;;
22186;SDS011;11259;52.146;12.844;2024-03-02T07:21:51;7.38;;;6.57;;
22186;SDS011;11259;52.146;12.844;2024-03-02T07:24:16;11.35;;;6.15;;
22186;SDS011;11259;52.146;12.844;2024-03-02T07:26:41;11.05;;;7.93;;
22186;SDS011;11259;52.146;12.844;2024-03-02T07:29:08;11.30;;;6.65;;
22186;SDS011;11259;52.146;12.844;2024-03-02T07:31:33;8.60;;;6.32;;
22186;SDS011;11259;52.146;12.844;2024-03-02T07:33:59;15.13;;;8.50;;
22186;SDS011;11259;52.146;12.844;2024-03-02T07:36:24;7.90;;;6.47;;
22186;SDS011;11259;52.146;12.844;2024-03-02T07:38:49;16.80;;;7.18;;
22186;SDS011;11259;52.146;12.844;2024-03-02T07:41:15;11.30;;;7.03;;
22186;SDS011;11259;52.146;12.844;2024-03-02T07:43:40;14.23;;;6.93;;
22186;SDS011;11259;52.146;12.844;2024-03-02T07:46:07;17.38;;;9.60;;
22186;SDS011;11259;52.146;12.844;2024-03-02T07:48:32;13.00;;;8.75;;
22186;SDS011;11259;52.146;12.844;2024-03-02T07:50:57;15.65;;;9.63;;
22186;SDS011;11259;52.146;12.844;2024-03-02T07:53:23;20.15;;;8.88;;
22186;SDS011;11259;52.146;12.844;2024-03-02T07:55:48;12.13;;;9.13;;
22186;SDS011;11259;52.146;12.844;2024-03-02T07:58:13;18.65;;;10.55;;
22186;SDS011;11259;52.146;12.844;2024-03-02T08:00:39;14.20;;;9.13;;
22186;SDS011;11259;52.146;12.844;2024-03-02T08:03:06;15.38;;;9.38;;
22186;SDS011;11259;52.146;12.844;2024-03-02T08:05:31;13.88;;;9.85;;
22186;SDS011;11259;52.146;12.844;2024-03-02T08:07:57;14.52;;;9.73;;
22186;SDS011;11259;52.146;12.844;2024-03-02T08:10:22;14.70;;;8.40;;
22186;SDS011;11259;52.146;12.844;2024-03-02T08:12:47;11.60;;;7.97;;
22186;SDS011;11259;52.146;12.844;2024-03-02T08:15:13;15.57;;;8.07;;
22186;SDS011;11259;52.146;12.844;2024-03-02T08:17:38;15.55;;;9.02;;
22186;SDS011;11259;52.146;12.844;2024-03-02T08:20:06;16.13;;;8.73;;
22186;SDS011;11259;52.146;12.844;2024-03-02T08:22:32;11.40;;;9.23;;
22186;SDS011;11259;52.146;12.844;2024-03-02T08:24:57;11.23;;;6.57;;
22186;SDS011;11259;52.146;12.844;2024-03-02T08:27:22;14.52;;;7.80;;
22186;SDS011;11259;52.146;12.844;2024-03-02T08:29:48;9.63;;;7.18;;
22186;SDS011;11259;52.146;12.844;2024-03-02T08:32:13;16.65;;;8.30;;
22186;SDS011;11259;52.146;12.844;2024-03-02T08:34:38;12.77;;;6.22;;
22186;SDS011;11259;52.146;12.844;2024-03-02T08:37:05;9.13;;;6.43;;
22186;SDS011;11259;52.146;12.844;2024-03-02T08:39:30;15.52;;;7.53;;
22186;SDS011;11259;52.146;12.844;2024-03-02T08:41:56;17.50;;;7.30;;
22186;SDS011;11259;52.146;12.844;2024-03-02T08:44:21;15.82;;;7.50;;
22186;SDS011;11259;52.146;12.844;2024-03-02T08:46:47;12.55;;;7.15;;
22186;SDS011;11259;52.146;12.844;2024-03-02T08:49:12;10.15;;;7.68;;
22186;SDS011;11259;52.146;12.844;2024-03-02T08:51:37;13.80;;;6.07;;
22186;SDS011;11259;52.146;12.844;2024-03-02T08:54:04;10.48;;;7.57;;
22186;SDS011;11259;52.146;12.844;2024-03-02T08:56:30;10.70;;;4.97;;
22186;SDS011;11259;52.146;12.844;2024-03-02T08:58:55;13.30;;;8.00;;
22186;SDS011;11259;52.146;12.844;2024-03-02T09:01:21;11.10;;;6.82;;
22186;SDS011;11259;52.146;12.844;2024-03-02T09:03:46;14.60;;;8.82;;
22186;SDS011;11259;52.146;12.844;2024-03-02T09:06:11;11.57;;;6.05;;
22186;SDS011;11259;52.146;12.844;2024-03-02T09:08:37;7.78;;;5.13;;
22186;SDS011;11259;52.146;12.844;2024-03-02T09:11:03;10.05;;;6.60;;
22186;SDS011;11259;52.146;12.844;2024-03-02T09:13:29;15.93;;;7.45;;
22186;SDS011;11259;52.146;12.844;2024-03-02T09:15:54;11.27;;;6.03;;
22186;SDS011;11259;52.146;12.844;2024-03-02T09:18:20;16.58;;;6.95;;
22186;SDS011;11259;52.146;12.844;2024-03-02T09:20:45;20.15;;;6.72;;
22186;SDS011;11259;52.146;12.844;2024-03-02T09:23:10;14.02;;;6.90;;
22186;SDS011;11259;52.146;12.844;2024-03-02T09:25:36;14.05;;;8.02;;
22186;SDS011;11259;52.146;12.844;2024-03-02T09:28:02;7.88;;;5.40;;
22186;SDS011;11259;52.146;12.844;2024-03-02T09:30:28;10.80;;;6.70;;
22186;SDS011;11259;52.146;12.844;2024-03-02T09:32:54;11.57;;;7.13;;
22186;SDS011;11259;52.146;12.844;2024-03-02T09:35:19;10.55;;;5.78;;
22186;SDS011;11259;52.146;12.844;2024-03-02T09:37:44;13.65;;;6.07;;
22186;SDS011;11259;52.146;12.844;2024-03-02T09:40:10;10.50;;;5.22;;
22186;SDS011;11259;52.146;12.844;2024-03-02T09:42:36;9.57;;;6.50;;
22186;SDS011;11259;52.146;12.844;2024-03-02T09:45:03;8.20;;;6.65;;
22186;SDS011;11259;52.146;12.844;2024-03-02T09:47:29;8.50;;;5.22;;
22186;SDS011;11259;52.146;12.844;2024-03-02T09:49:54;10.75;;;8.10;;
22186;SDS011;11259;52.146;12.844;2024-03-02T09:52:19;12.45;;;8.25;;
22186;SDS011;11259;52.146;12.844;2024-03-02T09:54:47;14.20;;;8.23;;
22186;SDS011;11259;52.146;12.844;2024-03-02T09:57:12;14.02;;;6.65;;
22186;SDS011;11259;52.146;12.844;2024-03-02T09:59:38;18.15;;;9.57;;
22186;SDS011;11259;52.146;12.844;2024-03-02T10:02:04;21.67;;;11.93;;
22186;SDS011;11259;52.146;12.844;2024-03-02T10:04:30;14.80;;;9.70;;
22186;SDS011;11259;52.146;12.844;2024-03-02T10:07:09;18.00;;;9.43;;
22186;SDS011;11259;52.146;12.844;2024-03-02T10:09:35;12.02;;;8.32;;
22186;SDS011;11259;52.146;12.844;2024-03-02T10:12:03;12.20;;;7.50;;
22186;SDS011;11259;52.146;12.844;2024-03-02T10:14:29;10.50;;;6.75;;
22186;SDS011;11259;52.146;12.844;2024-03-02T10:16:54;12.00;;;7.65;;
22186;SDS011;11259;52.146;12.844;2024-03-02T10:19:28;13.73;;;7.93;;
22186;SDS011;11259;52.146;12.844;2024-03-02T10:21:54;10.05;;;6.38;;
22186;SDS011;11259;52.146;12.844;2024-03-02T10:24:20;10.40;;;6.38;;
22186;SDS011;11259;52.146;12.844;2024-03-02T10:26:47;11.45;;;6.15;;
22186;SDS011;11259;52.146;12.844;2024-03-02T10:29:13;6.88;;;5.05;;
22186;SDS011;11259;52.146;12.844;2024-03-02T10:31:39;7.95;;;5.15;;
22186;SDS011;11259;52.146;12.844;2024-03-02T10:34:04;10.40;;;4.63;;
22186;SDS011;11259;52.146;12.844;2024-03-02T10:36:31;9.07;;;4.90;;
22186;SDS011;11259;52.146;12.844;2024-03-02T10:38:57;6.63;;;4.85;;
22186;SDS011;11259;52.146;12.844;2024-03-02T10:41:23;6.18;;;4.78;;
22186;SDS011;11259;52.146;12.844;2024-03-02T10:43:48;9.18;;;5.38;;
22186;SDS011;11259;52.146;12.844;2024-03-02T10:46:14;7.60;;;5.10;;
22186;SDS011;11259;52.146;12.844;2024-03-02T10:48:41;7.28;;;5.63;;
22186;SDS011;11259;52.146;12.844;2024-03-02T10:51:07;9.20;;;6.20;;
22186;SDS011;11259;52.146;12.844;2024-03-02T10:53:34;7.22;;;4.50;;
22186;SDS011;11259;52.146;12.844;2024-03-02T10:55:59;5.80;;;4.75;;
22186;SDS011;11259;52.146;12.844;2024-03-02T10:58:25;7.75;;;5.15;;
22186;SDS011;11259;52.146;12.844;2024-03-02T11:00:52;5.97;;;4.07;;
22186;SDS011;11259;52.146;12.844;2024-03-02T11:03:17;8.43;;;4.72;;
22186;SDS011;11259;52.146;12.844;2024-03-02T11:05:44;9.55;;;5.55;;
22186;SDS011;11259;52.146;12.844;2024-03-02T11:08:11;8.20;;;4.53;;
22186;SDS011;11259;52.146;12.844;2024-03-02T11:10:41;8.23;;;4.65;;
22186;SDS011;11259;52.146;12.844;2024-03-02T11:13:10;4.85;;;4.32;;
22186;SDS011;11259;52.146;12.844;2024-03-02T11:15:37;6.38;;;3.90;;
22186;SDS011;11259;52.146;12.844;2024-03-02T11:18:03;7.68;;;5.68;;
22186;SDS011;11259;52.146;12.844;2024-03-02T11:20:29;9.93;;;4.97;;
22186;SDS011;11259;52.146;12.844;2024-03-02T11:22:55;6.75;;;4.22;;
22186;SDS011;11259;52.146;12.844;2024-03-02T11:25:24;9.18;;;4.43;;
22186;SDS011;11259;52.146;12.844;2024-03-02T11:28:00;7.63;;;4.50;;
22186;SDS011;11259;52.146;12.844;2024-03-02T11:33:14;9.15;;;5.22;;
22186;SDS011;11259;52.146;12.844;2024-03-02T11:35:48;9.48;;;5.03;;
22186;SDS011;11259;52.146;12.844;2024-03-02T11:38:13;13.57;;;8.77;;
22186;SDS011;11259;52.146;12.844;2024-03-02T11:40:39;12.25;;;8.25;;
22186;SDS011;11259;52.146;12.844;2024-03-02T11:43:06;6.22;;;4.30;;
22186;SDS011;11259;52.146;12.844;2024-03-02T11:45:32;7.93;;;5.30;;
22186;SDS011;11259;52.146;12.844;2024-03-02T11:47:57;6.50;;;4.03;;
22186;SDS011;11259;52.146;12.844;2024-03-02T11:50:28;6.60;;;4.15;;
22186;SDS011;11259;52.146;12.844;2024-03-02T11:52:54;6.45;;;4.75;;
22186;SDS011;11259;52.146;12.844;2024-03-02T11:55:20;5.65;;;3.70;;
22186;SDS011;11259;52.146;12.844;2024-03-02T11:57:46;5.78;;;4.43;;
22186;SDS011;11259;52.146;12.844;2024-03-02T12:00:17;7.57;;;3.97;;
22186;SDS011;11259;52.146;12.844;2024-03-02T12:02:43;5.85;;;3.97;;
22186;SDS011;11259;52.146;12.844;2024-03-02T12:05:08;5.35;;;3.50;;
22186;SDS011;11259;52.146;12.844;2024-03-02T12:07:34;7.90;;;4.70;;
22186;SDS011;11259;52.146;12.844;2024-03-02T12:10:00;5.72;;;4.38;;
22186;SDS011;11259;52.146;12.844;2024-03-02T12:12:25;8.95;;;4.88;;
22186;SDS011;11259;52.146;12.844;2024-03-02T12:14:51;8.90;;;4.50;;
22186;SDS011;11259;52.146;12.844;2024-03-02T12:17:18;6.07;;;3.88;;
22186;SDS011;11259;52.146;12.844;2024-03-02T12:19:44;13.35;;;8.00;;
22186;SDS011;11259;52.146;12.844;2024-03-02T12:22:09;14.05;;;7.55;;
22186;SDS011;11259;52.146;12.844;2024-03-02T12:24:35;12.55;;;7.93;;
22186;SDS011;11259;52.146;12.844;2024-03-02T12:27:00;9.93;;;6.60;;
22186;SDS011;11259;52.146;12.844;2024-03-02T12:29:26;17.67;;;9.77;;
22186;SDS011;11259;52.146;12.844;2024-03-02T12:31:52;21.27;;;9.30;;
22186;SDS011;11259;52.146;12.844;2024-03-02T12:34:18;16.00;;;6.45;;
22186;SDS011;11259;52.146;12.844;2024-03-02T12:36:44;9.05;;;5.13;;
22186;SDS011;11259;52.146;12.844;2024-03-02T12:39:10;8.25;;;5.15;;
22186;SDS011;11259;52.146;12.844;2024-03-02T12:41:36;11.85;;;5.43;;
22186;SDS011;11259;52.146;12.844;2024-03-02T12:44:01;10.35;;;5.85;;
22186;SDS011;11259;52.146;12.844;2024-03-02T12:46:27;17.90;;;7.55;;
22186;SDS011;11259;52.146;12.844;2024-03-02T12:48:52;10.50;;;6.93;;
22186;SDS011;11259;52.146;12.844;2024-03-02T12:51:19;8.02;;;4.85;;
22186;SDS011;11259;52.146;12.844;2024-03-02T12:53:45;9.30;;;4.80;;
22186;SDS011;11259;52.146;12.844;2024-03-02T12:56:10;6.68;;;3.65;;
22186;SDS011;11259;52.146;12.844;2024-03-02T12:58:38;7.07;;;5.32;;
22186;SDS011;11259;52.146;12.844;2024-03-02T13:01:07;5.43;;;3.80;;
22186;SDS011;11259;52.146;12.844;2024-03-02T13:03:34;6.20;;;3.83;;
22186;SDS011;11259;52.146;12.844;2024-03-02T13:06:00;4.60;;;3.30;;
22186;SDS011;11259;52.146;12.844;2024-03-02T13:08:27;2.92;;;2.33;;
22186;SDS011;11259;52.146;12.844;2024-03-02T13:10:52;5.03;;;3.85;;
22186;SDS011;11259;52.146;12.844;2024-03-02T13:13:18;4.35;;;3.33;;
22186;SDS011;11259;52.146;12.844;2024-03-02T13:15:43;5.53;;;3.25;;
22186;SDS011;11259;52.146;12.844;2024-03-02T13:18:09;8.20;;;4.32;;
22186;SDS011;11259;52.146;12.844;2024-03-02T13:20:34;6.68;;;4.65;;
22186;SDS011;11259;52.146;12.844;2024-03-02T13:22:59;7.80;;;4.18;;
22186;SDS011;11259;52.146;12.844;2024-03-02T13:25:26;5.20;;;3.72;;
22186;SDS011;11259;52.146;12.844;2024-03-02T13:27:51;5.00;;;2.85;;
22186;SDS011;11259;52.146;12.844;2024-03-02T13:30:17;4.45;;;3.17;;
22186;SDS011;11259;52.146;12.844;2024-03-02T13:32:42;3.78;;;2.17;;
22186;SDS011;11259;52.146;12.844;2024-03-02T13:35:07;5.13;;;2.88;;
22186;SDS011;11259;52.146;12.844;2024-03-02T13:37:33;2.75;;;1.77;;
22186;SDS011;11259;52.146;12.844;2024-03-02T13:39:58;3.80;;;2.55;;
22186;SDS011;11259;52.146;12.844;2024-03-02T13:42:25;4.43;;;3.38;;
22186;SDS011;11259;52.146;12.844;2024-03-02T13:44:50;5.70;;;3.58;;
22186;SDS011;11259;52.146;12.844;2024-03-02T13:47:15;9.82;;;4.55;;
22186;SDS011;11259;52.146;12.844;2024-03-02T13:49:41;8.35;;;6.47;;
22186;SDS011;11259;52.146;12.844;2024-03-02T13:52:06;6.90;;;4.50;;
22186;SDS011;11259;52.146;12.844;2024-03-02T13:54:32;6.38;;;3.33;;
22186;SDS011;11259;52.146;12.844;2024-03-02T13:56:57;9.60;;;4.78;;
22186;SDS011;11259;52.146;12.844;2024-03-02T13:59:24;5.55;;;3.78;;
22186;SDS011;11259;52.146;12.844;2024-03-02T14:01:50;5.95;;;4.28;;
22186;SDS011;11259;52.146;12.844;2024-03-02T14:04:15;12.20;;;4.28;;
22186;SDS011;11259;52.146;12.844;2024-03-02T14:06:41;10.82;;;6.38;;
22186;SDS011;11259;52.146;12.844;2024-03-02T14:09:07;9.90;;;6.32;;
22186;SDS011;11259;52.146;12.844;2024-03-02T14:11:33;9.80;;;5.38;;
22186;SDS011;11259;52.146;12.844;2024-03-02T14:13:58;9.75;;;5.15;;
22186;SDS011;11259;52.146;12.844;2024-03-02T14:16:25;6.55;;;4.57;;
22186;SDS011;11259;52.146;12.844;2024-03-02T14:18:50;9.02;;;5.15;;
22186;SDS011;11259;52.146;12.844;2024-03-02T14:21:15;8.48;;;5.07;;
22186;SDS011;11259;52.146;12.844;2024-03-02T14:23:41;11.80;;;6.45;;
22186;SDS011;11259;52.146;12.844;2024-03-02T14:26:06;6.70;;;4.60;;